createdAt,value
2023-03-01T00:01:43.792Z,96797.53
2023-03-01T00:04:11.996Z,96797.22
2023-03-01T00:06:39.970Z,96793.09
2023-03-01T00:09:07.898Z,96791.81
2023-03-01T00:11:35.849Z,96785.11
2023-03-01T00:14:10.800Z,96783.39
2023-03-01T00:16:43.897Z,96783.55
2023-03-01T00:19:15.526Z,96781.50
2023-03-01T00:21:44.506Z,96780.95
2023-03-01T00:24:12.576Z,96778.38
2023-03-01T00:26:40.731Z,96779.55
2023-03-01T00:29:09.133Z,96779.08
2023-03-01T00:31:37.149Z,96784.69
2023-03-01T00:34:07.515Z,96788.56
2023-03-01T00:36:37.431Z,96783.93
2023-03-01T00:39:09.310Z,96785.25
2023-03-01T00:41:37.251Z,96783.50
2023-03-01T00:44:05.322Z,96781.73
2023-03-01T00:46:33.881Z,96777.39
2023-03-01T00:49:05.714Z,96775.44
2023-03-01T00:51:34.556Z,96772.63
2023-03-01T00:54:03.571Z,96771.54
2023-03-01T00:56:32.698Z,96770.56
2023-03-01T00:59:02.190Z,96769.73
2023-03-01T01:01:32.132Z,96768.44
2023-03-01T01:04:06.884Z,96768.83
2023-03-01T01:06:40.201Z,96766.48
2023-03-01T01:09:08.476Z,96764.80
2023-03-01T01:11:39.669Z,96761.77
2023-03-01T01:14:07.767Z,96758.06
2023-03-01T01:16:36.025Z,96753.89
2023-03-01T01:19:04.134Z,96747.00
2023-03-01T01:21:32.521Z,96743.54
2023-03-01T01:24:01.178Z,96741.80
2023-03-01T01:26:32.930Z,96740.59
2023-03-01T01:29:03.225Z,96740.02
2023-03-01T01:31:33.351Z,96740.16
2023-03-01T01:34:03.783Z,96738.95
2023-03-01T01:36:33.436Z,96736.55
2023-03-01T01:39:01.639Z,96732.77
2023-03-01T01:41:30.562Z,96735.50
2023-03-01T01:44:26.157Z,96734.29
2023-03-01T01:46:54.028Z,96734.98
2023-03-01T01:49:25.698Z,96731.21
2023-03-01T01:52:03.217Z,96732.23
2023-03-01T01:54:57.300Z,96728.48
2023-03-01T01:57:30.652Z,96726.30
2023-03-01T02:00:01.588Z,96723.06
2023-03-01T02:02:30.153Z,96720.16
2023-03-01T02:05:11.372Z,96718.11
2023-03-01T02:07:40.886Z,96721.72
2023-03-01T02:10:09.645Z,96719.70
2023-03-01T02:12:39.479Z,96718.01
2023-03-01T02:15:07.967Z,96717.18
2023-03-01T02:17:37.205Z,96714.67
2023-03-01T02:20:40.862Z,96714.90
2023-03-01T02:23:09.393Z,96714.21
2023-03-01T02:25:50.715Z,96709.25
2023-03-01T02:28:18.712Z,96705.84
2023-03-01T02:31:09.528Z,96704.09
2023-03-01T02:33:40.561Z,96701.33
2023-03-01T02:36:18.195Z,96700.27
2023-03-01T02:38:47.059Z,96699.02
2023-03-01T02:41:18.537Z,96697.56
2023-03-01T02:43:46.726Z,96696.23
2023-03-01T02:46:24.428Z,96697.15
2023-03-01T02:48:55.389Z,96695.35
2023-03-01T02:51:45.388Z,96694.05
2023-03-01T02:54:29.778Z,96688.04
2023-03-01T02:57:00.890Z,96686.26
2023-03-01T02:59:40.451Z,96681.61
2023-03-01T03:02:45.284Z,96676.59
2023-03-01T03:05:30.186Z,96675.30
2023-03-01T03:08:02.247Z,96670.98
2023-03-01T03:10:35.994Z,96667.86
2023-03-01T03:13:10.491Z,96667.33
2023-03-01T03:15:40.176Z,96666.57
2023-03-01T03:18:14.563Z,96664.04
2023-03-01T03:20:44.045Z,96659.61
2023-03-01T03:23:13.312Z,96662.31
2023-03-01T03:25:41.270Z,96660.02
2023-03-01T03:28:12.210Z,96656.73
2023-03-01T03:30:42.233Z,96655.37
2023-03-01T03:33:13.607Z,96655.20
2023-03-01T03:35:48.218Z,96655.02
2023-03-01T03:38:20.239Z,96655.46
2023-03-01T03:40:51.266Z,96656.26
2023-03-01T03:43:22.023Z,96656.84
2023-03-01T03:45:52.296Z,96654.67
2023-03-01T03:48:21.213Z,96656.80
2023-03-01T03:50:51.757Z,96654.69
2023-03-01T03:53:20.740Z,96648.85
2023-03-01T03:55:52.693Z,96644.20
2023-03-01T03:58:23.149Z,96644.39
2023-03-01T04:00:53.941Z,96640.84
2023-03-01T04:03:22.198Z,96641.81
2023-03-01T04:05:53.996Z,96640.77
2023-03-01T04:08:24.030Z,96643.80
2023-03-01T04:10:58.530Z,96648.36
2023-03-01T04:13:26.682Z,96647.26
2023-03-01T04:15:55.776Z,96650.21
2023-03-01T04:18:26.289Z,96653.06
2023-03-01T04:20:56.596Z,96652.76
2023-03-01T04:23:25.047Z,96653.80
2023-03-01T04:25:58.219Z,96655.21
2023-03-01T04:28:30.084Z,96656.71
2023-03-01T04:30:59.799Z,96661.95
2023-03-01T04:33:27.885Z,96663.41
2023-03-01T04:35:55.973Z,96661.75
2023-03-01T04:38:23.991Z,96661.45
2023-03-01T04:40:51.976Z,96661.00
2023-03-01T04:43:20.027Z,96661.21
2023-03-01T04:45:48.057Z,96662.77
2023-03-01T04:48:16.152Z,96664.50
2023-03-01T04:50:44.200Z,96671.52
2023-03-01T04:53:12.245Z,96673.15
2023-03-01T04:55:40.233Z,96675.13
2023-03-01T04:58:08.318Z,96675.50
2023-03-01T05:00:36.172Z,96678.94
2023-03-01T05:03:04.273Z,96683.63
2023-03-01T05:05:39.945Z,96687.30
2023-03-01T05:08:09.523Z,96689.25
2023-03-01T05:10:38.802Z,96689.67
2023-03-01T05:13:07.701Z,96699.09
2023-03-01T05:15:37.628Z,96696.83
2023-03-01T05:18:12.434Z,96697.60
2023-03-01T05:20:40.638Z,96696.15
2023-03-01T05:23:08.681Z,96696.55
2023-03-01T05:25:41.292Z,96696.37
2023-03-01T05:28:13.224Z,96700.33
2023-03-01T05:30:41.744Z,96707.17
2023-03-01T05:33:16.208Z,96705.31
2023-03-01T05:35:45.973Z,96704.41
2023-03-01T05:38:14.431Z,96706.55
2023-03-01T05:40:47.342Z,96701.98
2023-03-01T05:43:17.086Z,96702.73
2023-03-01T05:45:45.415Z,96705.47
2023-03-01T05:48:14.719Z,96706.09
2023-03-01T05:50:44.860Z,96711.09
2023-03-01T05:53:16.767Z,96712.52
2023-03-01T05:55:45.418Z,96709.86
2023-03-01T05:58:16.730Z,96710.66
2023-03-01T06:00:46.836Z,96716.77
2023-03-01T06:03:16.854Z,96714.40
2023-03-01T06:05:45.980Z,96716.55
2023-03-01T06:08:14.904Z,96719.02
2023-03-01T06:10:42.840Z,96717.38
2023-03-01T06:13:10.753Z,96717.25
2023-03-01T06:15:39.020Z,96718.52
2023-03-01T06:18:06.988Z,96723.20
2023-03-01T06:20:34.930Z,96729.14
2023-03-01T06:23:02.913Z,96732.47
2023-03-01T06:25:30.843Z,96730.77
2023-03-01T06:27:59.250Z,96728.86
2023-03-01T06:30:28.148Z,96728.65
2023-03-01T06:33:01.855Z,96728.84
2023-03-01T06:35:31.191Z,96730.08
2023-03-01T06:38:01.827Z,96730.83
2023-03-01T06:40:32.298Z,96730.52
2023-03-01T06:43:00.661Z,96731.20
2023-03-01T06:45:28.776Z,96731.38
2023-03-01T06:48:07.089Z,96739.09
2023-03-01T06:50:36.346Z,96736.61
2023-03-01T06:53:04.788Z,96741.05
2023-03-01T06:55:33.300Z,96741.27
2023-03-01T06:58:02.772Z,96742.02
2023-03-01T07:00:31.015Z,96737.58
2023-03-01T07:03:03.549Z,96734.27
2023-03-01T07:05:31.959Z,96736.98
2023-03-01T07:08:00.109Z,96735.95
2023-03-01T07:10:28.473Z,96731.61
2023-03-01T07:12:59.987Z,96729.93
2023-03-01T07:15:29.839Z,96726.95
2023-03-01T07:17:57.839Z,96729.42
2023-03-01T07:20:26.724Z,96735.62
2023-03-01T07:22:56.119Z,96732.41
2023-03-01T07:25:24.297Z,96729.58
2023-03-01T07:27:53.551Z,96724.34
2023-03-01T07:30:22.451Z,96722.66
2023-03-01T07:32:50.662Z,96722.72
2023-03-01T07:35:18.874Z,96719.20
2023-03-01T07:37:46.824Z,96722.42
2023-03-01T07:40:14.781Z,96719.48
2023-03-01T07:42:42.734Z,96714.87
2023-03-01T07:45:11.351Z,96709.64
2023-03-01T07:47:39.236Z,96704.61
2023-03-01T07:50:07.565Z,96699.59
2023-03-01T07:52:35.447Z,96700.70
2023-03-01T07:55:03.376Z,96701.77
2023-03-01T07:57:31.256Z,96701.11
2023-03-01T07:59:59.133Z,96700.77
2023-03-01T08:02:27.074Z,96697.33
2023-03-01T08:04:55.190Z,96692.70
2023-03-01T08:07:23.017Z,96693.24
2023-03-01T08:09:50.920Z,96695.70
2023-03-01T08:12:18.800Z,96696.50
2023-03-01T08:14:46.686Z,96696.20
2023-03-01T08:17:15.674Z,96692.44
2023-03-01T08:19:44.172Z,96686.29
2023-03-01T08:22:12.531Z,96680.79
2023-03-01T08:24:40.592Z,96678.36
2023-03-01T08:27:08.590Z,96676.20
2023-03-01T08:29:36.464Z,96674.94
2023-03-01T08:32:04.576Z,96670.12
2023-03-01T08:34:32.962Z,96671.26
2023-03-01T08:37:00.874Z,96664.87
2023-03-01T08:39:29.197Z,96662.95
2023-03-01T08:41:58.133Z,96660.52
2023-03-01T08:44:26.165Z,96657.52
2023-03-01T08:46:55.513Z,96654.51
2023-03-01T08:49:23.646Z,96655.13
2023-03-01T08:51:51.580Z,96653.88
2023-03-01T08:54:22.295Z,96654.24
2023-03-01T08:56:50.839Z,96651.88
2023-03-01T08:59:19.223Z,96654.43
2023-03-01T09:01:47.160Z,96654.64
2023-03-01T09:04:16.232Z,96656.45
2023-03-01T09:06:44.678Z,96652.05
2023-03-01T09:09:18.032Z,96649.73
2023-03-01T09:11:47.392Z,96644.41
2023-03-01T09:14:15.639Z,96646.42
2023-03-01T09:16:43.840Z,96647.63
2023-03-01T09:19:12.307Z,96648.98
2023-03-01T09:21:41.238Z,96647.13
2023-03-01T09:24:15.204Z,96644.48
2023-03-01T09:26:44.071Z,96642.94
2023-03-01T09:29:12.015Z,96638.74
2023-03-01T09:31:40.148Z,96636.90
2023-03-01T09:34:09.040Z,96638.59
2023-03-01T09:36:37.192Z,96633.70
2023-03-01T09:39:07.035Z,96632.23
2023-03-01T09:41:35.003Z,96625.40
2023-03-01T09:44:37.274Z,96619.43
2023-03-01T09:47:06.866Z,96613.48
2023-03-01T09:49:40.717Z,96616.55
2023-03-01T09:52:30.805Z,96616.30
2023-03-01T09:55:00.717Z,96620.92
2023-03-01T09:57:47.394Z,96620.77
2023-03-01T10:00:24.972Z,96620.88
2023-03-01T10:03:18.703Z,96613.46
2023-03-01T10:05:55.209Z,96607.67
2023-03-01T10:08:55.374Z,96606.94
2023-03-01T10:11:38.088Z,96610.89
2023-03-01T10:14:25.176Z,96610.66
2023-03-01T10:16:59.974Z,96611.32
2023-03-01T10:19:40.075Z,96611.04
2023-03-01T10:22:24.094Z,96605.92
2023-03-01T10:24:53.977Z,96600.59
2023-03-01T10:27:55.513Z,96595.52
2023-03-01T10:30:44.993Z,96594.45
2023-03-01T10:33:24.466Z,96595.74
2023-03-01T10:35:52.573Z,96590.16
2023-03-01T10:38:23.662Z,96587.95
2023-03-01T10:40:53.291Z,96587.48
2023-03-01T10:43:22.488Z,96589.25
2023-03-01T10:45:50.642Z,96583.01
2023-03-01T10:48:24.697Z,96578.83
2023-03-01T10:50:58.519Z,96579.96
2023-03-01T10:53:32.368Z,96579.64
2023-03-01T10:56:16.737Z,96573.51
2023-03-01T10:59:00.985Z,96567.63
2023-03-01T11:01:33.781Z,96567.14
2023-03-01T11:04:08.355Z,96561.87
2023-03-01T11:06:38.771Z,96560.24
2023-03-01T11:09:21.607Z,96561.05
2023-03-01T11:11:58.030Z,96559.40
2023-03-01T11:14:33.451Z,96554.17
2023-03-01T11:17:13.453Z,96549.20
2023-03-01T11:19:43.656Z,96549.54
2023-03-01T11:22:31.316Z,96546.91
2023-03-01T11:25:10.090Z,96543.85
2023-03-01T11:27:44.440Z,96536.66
2023-03-01T11:30:27.746Z,96536.54
2023-03-01T11:33:23.711Z,96529.57
2023-03-01T11:36:01.847Z,96528.92
2023-03-01T11:38:33.498Z,96528.70
2023-03-01T11:41:06.588Z,96522.10
2023-03-01T11:43:55.253Z,96523.15
2023-03-01T11:46:52.601Z,96523.41
2023-03-01T11:49:32.796Z,96513.04
2023-03-01T11:52:24.673Z,96511.10
2023-03-01T11:55:01.519Z,96504.06
2023-03-01T11:58:08.302Z,96503.59
2023-03-01T12:01:09.134Z,96498.14
2023-03-01T12:04:07.834Z,96493.28
2023-03-01T12:06:56.686Z,96489.98
2023-03-01T12:09:53.763Z,96486.73
2023-03-01T12:12:52.014Z,96480.92
2023-03-01T12:15:40.269Z,96477.33
2023-03-01T12:18:20.507Z,96478.25
2023-03-01T12:21:05.002Z,96479.95
2023-03-01T12:23:53.933Z,96476.54
2023-03-01T12:26:35.035Z,96471.92
2023-03-01T12:29:17.663Z,96469.88
2023-03-01T12:31:45.658Z,96468.45
2023-03-01T12:34:25.565Z,96468.57
2023-03-01T12:37:17.882Z,96465.70
2023-03-01T12:40:04.662Z,96463.30
2023-03-01T12:42:53.020Z,96467.70
2023-03-01T12:45:40.518Z,96466.46
2023-03-01T12:48:08.376Z,96464.96
2023-03-01T12:50:56.548Z,96460.70
2023-03-01T12:53:27.849Z,96453.06
2023-03-01T12:56:26.340Z,96453.39
2023-03-01T12:59:03.889Z,96449.16
2023-03-01T13:01:37.542Z,96448.85
2023-03-01T13:04:34.293Z,96449.36
2023-03-01T13:07:29.432Z,96453.25
2023-03-01T13:10:07.237Z,96447.11
2023-03-01T13:12:50.570Z,96439.86
2023-03-01T13:15:24.766Z,96440.66
2023-03-01T13:17:58.818Z,96441.12
2023-03-01T13:20:49.249Z,96441.30
2023-03-01T13:23:20.170Z,96436.36
2023-03-01T13:26:07.558Z,96427.61
2023-03-01T13:28:35.659Z,96427.08
2023-03-01T13:31:06.609Z,96424.45
2023-03-01T13:33:48.311Z,96423.67
2023-03-01T13:36:28.538Z,96421.92
2023-03-01T13:38:56.691Z,96420.09
2023-03-01T13:41:39.570Z,96421.68
2023-03-01T13:44:27.344Z,96418.27
2023-03-01T13:47:06.133Z,96422.79
2023-03-01T13:50:00.188Z,96419.33
2023-03-01T13:52:55.054Z,96419.83
2023-03-01T13:55:33.582Z,96423.67
2023-03-01T13:58:05.427Z,96421.02
2023-03-01T14:00:33.508Z,96415.92
2023-03-01T14:03:14.932Z,96412.13
2023-03-01T14:06:11.524Z,96412.40
2023-03-01T14:08:42.137Z,96411.96
2023-03-01T14:11:26.329Z,96411.20
2023-03-01T14:13:57.277Z,96409.66
2023-03-01T14:16:34.730Z,96409.09
2023-03-01T14:19:08.532Z,96408.02
2023-03-01T14:21:37.942Z,96410.06
2023-03-01T14:24:06.356Z,96409.60
2023-03-01T14:26:37.657Z,96406.42
2023-03-01T14:29:05.669Z,96402.35
2023-03-01T14:31:46.992Z,96405.70
2023-03-01T14:34:25.848Z,96408.73
2023-03-01T14:36:53.870Z,96407.08
2023-03-01T14:39:27.447Z,96404.68
2023-03-01T14:41:57.415Z,96402.45
2023-03-01T14:44:26.928Z,96407.63
2023-03-01T14:46:58.237Z,96403.14
2023-03-01T14:49:30.442Z,96394.02
2023-03-01T14:52:06.478Z,96393.80
2023-03-01T14:54:45.427Z,96386.86
2023-03-01T14:57:17.592Z,96389.88
2023-03-01T14:59:46.762Z,96391.46
2023-03-01T15:02:20.847Z,96393.23
2023-03-01T15:04:52.379Z,96390.77
2023-03-01T15:07:20.892Z,96386.27
2023-03-01T15:09:49.053Z,96389.72
2023-03-01T15:12:29.281Z,96393.05
2023-03-01T15:15:04.275Z,96391.87
2023-03-01T15:17:40.356Z,96387.55
2023-03-01T15:20:18.460Z,96384.02
2023-03-01T15:22:49.780Z,96382.19
2023-03-01T15:25:20.624Z,96387.27
2023-03-01T15:27:50.978Z,96390.30
2023-03-01T15:30:38.537Z,96388.42
2023-03-01T15:33:27.969Z,96387.98
2023-03-01T15:36:02.369Z,96386.91
2023-03-01T15:38:57.787Z,96384.70
2023-03-01T15:41:34.284Z,96390.09
2023-03-01T15:44:27.928Z,96387.91
2023-03-01T15:46:58.408Z,96385.77
2023-03-01T15:49:54.402Z,96382.11
2023-03-01T15:52:30.250Z,96386.39
2023-03-01T15:55:01.462Z,96386.73
2023-03-01T15:57:29.717Z,96388.72
2023-03-01T15:59:57.880Z,96391.73
2023-03-01T16:02:26.003Z,96399.60
2023-03-01T16:04:54.876Z,96399.41
2023-03-01T16:07:22.863Z,96401.74
2023-03-01T16:09:50.806Z,96402.42
2023-03-01T16:12:21.541Z,96405.98
2023-03-01T16:14:49.719Z,96409.27
2023-03-01T16:17:17.769Z,96409.95
2023-03-01T16:19:45.706Z,96411.70
2023-03-01T16:22:13.648Z,96413.81
2023-03-01T16:24:42.230Z,96413.83
2023-03-01T16:27:10.249Z,96413.33
2023-03-01T16:29:38.262Z,96413.02
2023-03-01T16:32:06.285Z,96411.42
2023-03-01T16:34:34.803Z,96415.81
2023-03-01T16:37:02.724Z,96417.45
2023-03-01T16:39:30.754Z,96419.33
2023-03-01T16:42:01.401Z,96421.67
2023-03-01T16:44:29.318Z,96423.06
2023-03-01T16:46:57.363Z,96426.86
2023-03-01T16:49:25.282Z,96426.48
2023-03-01T16:51:55.292Z,96428.48
2023-03-01T16:54:23.191Z,96429.11
2023-03-01T16:56:51.473Z,96429.06
2023-03-01T16:59:20.625Z,96432.36
2023-03-01T17:01:48.653Z,96432.90
2023-03-01T17:04:16.998Z,96431.61
2023-03-01T17:06:47.763Z,96429.61
2023-03-01T17:09:17.817Z,96424.10
2023-03-01T17:11:45.720Z,96425.14
2023-03-01T17:14:13.712Z,96421.47
2023-03-01T17:16:41.752Z,96422.96
2023-03-01T17:19:10.190Z,96422.64
2023-03-01T17:21:38.281Z,96423.60
2023-03-01T17:24:06.356Z,96420.45
2023-03-01T17:26:34.339Z,96416.21
2023-03-01T17:29:03.969Z,96416.91
2023-03-01T17:31:33.790Z,96416.80
2023-03-01T17:34:02.236Z,96414.10
2023-03-01T17:36:30.432Z,96417.33
2023-03-01T17:38:58.703Z,96420.52
2023-03-01T17:41:26.615Z,96419.30
2023-03-01T17:43:54.599Z,96418.96
2023-03-01T17:46:22.565Z,96418.13
2023-03-01T17:48:50.946Z,96414.34
2023-03-01T17:51:19.094Z,96409.98
2023-03-01T17:53:47.028Z,96410.26
2023-03-01T17:56:16.218Z,96409.96
2023-03-01T17:58:44.447Z,96405.77
2023-03-01T18:01:20.922Z,96404.98
2023-03-01T18:03:51.514Z,96404.82
2023-03-01T18:06:27.559Z,96406.41
2023-03-01T18:08:56.718Z,96407.70
2023-03-01T18:11:25.857Z,96408.02
2023-03-01T18:13:55.387Z,96411.41
2023-03-01T18:16:23.572Z,96408.75
2023-03-01T18:18:56.449Z,96410.38
2023-03-01T18:21:25.000Z,96407.71
2023-03-01T18:23:55.904Z,96408.70
2023-03-01T18:26:25.347Z,96412.60
2023-03-01T18:28:54.028Z,96407.73
2023-03-01T18:31:22.753Z,96408.86
2023-03-01T18:33:55.299Z,96410.26
2023-03-01T18:36:29.631Z,96410.58
2023-03-01T18:39:01.362Z,96410.87
2023-03-01T18:41:29.835Z,96413.01
2023-03-01T18:43:58.576Z,96415.27
2023-03-01T18:46:26.818Z,96415.72
2023-03-01T18:48:55.558Z,96417.39
2023-03-01T18:51:27.034Z,96421.94
2023-03-01T18:53:56.442Z,96421.50
2023-03-01T18:56:25.489Z,96424.79
2023-03-01T18:58:53.436Z,96422.99
2023-03-01T19:01:26.486Z,96419.88
2023-03-01T19:03:56.666Z,96418.92
2023-03-01T19:06:29.204Z,96418.28
2023-03-01T19:08:57.984Z,96412.30
2023-03-01T19:11:31.334Z,96410.18
2023-03-01T19:14:01.162Z,96409.57
2023-03-01T19:16:32.069Z,96411.50
2023-03-01T19:19:02.391Z,96413.69
2023-03-01T19:21:32.176Z,96412.96
2023-03-01T19:24:02.608Z,96413.69
2023-03-01T19:26:31.884Z,96419.18
2023-03-01T19:29:00.695Z,96426.27
2023-03-01T19:31:31.025Z,96434.55
2023-03-01T19:34:10.535Z,96434.72
2023-03-01T19:36:42.832Z,96433.48
2023-03-01T19:39:13.609Z,96438.70
2023-03-01T19:41:43.590Z,96441.17
2023-03-01T19:44:12.497Z,96444.01
2023-03-01T19:46:40.788Z,96440.52
2023-03-01T19:49:09.339Z,96442.92
2023-03-01T19:51:39.382Z,96440.38
2023-03-01T19:54:09.832Z,96437.20
2023-03-01T19:56:38.604Z,96438.98
2023-03-01T19:59:07.346Z,96435.02
2023-03-01T20:01:35.812Z,96430.54
2023-03-01T20:04:04.858Z,96432.98
2023-03-01T20:06:33.192Z,96433.05
2023-03-01T20:09:19.095Z,96432.05
2023-03-01T20:11:49.035Z,96430.19
2023-03-01T20:14:17.692Z,96429.89
2023-03-01T20:16:45.755Z,96427.52
2023-03-01T20:19:13.866Z,96429.23
2023-03-01T20:21:41.987Z,96433.88
2023-03-01T20:24:10.138Z,96438.38
2023-03-01T20:26:38.393Z,96439.61
2023-03-01T20:29:08.537Z,96439.10
2023-03-01T20:31:37.163Z,96444.88
2023-03-01T20:34:05.418Z,96449.03
2023-03-01T20:36:50.146Z,96448.59
2023-03-01T20:39:18.592Z,96448.06
2023-03-01T20:41:46.519Z,96449.25
2023-03-01T20:44:14.478Z,96452.64
2023-03-01T20:46:42.676Z,96451.38
2023-03-01T20:49:11.152Z,96449.55
2023-03-01T20:51:39.236Z,96449.08
2023-03-01T20:54:07.396Z,96446.50
2023-03-01T20:56:35.587Z,96446.67
2023-03-01T20:59:05.432Z,96444.23
2023-03-01T21:01:33.377Z,96440.95
2023-03-01T21:04:02.307Z,96440.95
2023-03-01T21:06:30.461Z,96436.77
2023-03-01T21:08:58.495Z,96433.09
2023-03-01T21:11:26.551Z,96431.48
2023-03-01T21:13:55.540Z,96430.60
2023-03-01T21:16:24.495Z,96431.91
2023-03-01T21:18:52.533Z,96428.27
2023-03-01T21:21:22.772Z,96424.90
2023-03-01T21:23:50.821Z,96427.81
2023-03-01T21:26:24.920Z,96432.72
2023-03-01T21:29:01.510Z,96436.66
2023-03-01T21:31:32.307Z,96440.44
2023-03-01T21:34:04.297Z,96436.60
2023-03-01T21:36:32.857Z,96430.52
2023-03-01T21:39:02.326Z,96429.48
2023-03-01T21:41:33.062Z,96428.41
2023-03-01T21:44:06.774Z,96426.63
2023-03-01T21:46:38.255Z,96426.69
2023-03-01T21:49:08.795Z,96424.50
2023-03-01T21:51:37.511Z,96420.25
2023-03-01T21:54:17.186Z,96419.68
2023-03-01T21:57:14.683Z,96417.27
2023-03-01T21:59:42.756Z,96413.33
2023-03-01T22:02:12.504Z,96408.67
2023-03-01T22:04:41.443Z,96411.48
2023-03-01T22:07:09.345Z,96408.61
2023-03-01T22:09:38.962Z,96408.13
2023-03-01T22:12:07.086Z,96403.52
2023-03-01T22:14:35.134Z,96402.13
2023-03-01T22:17:03.089Z,96399.16
2023-03-01T22:19:31.346Z,96400.48
2023-03-01T22:21:59.286Z,96400.27
2023-03-01T22:24:27.310Z,96396.96
2023-03-01T22:26:55.515Z,96395.80
2023-03-01T22:29:27.053Z,96398.90
2023-03-01T22:31:56.470Z,96397.05
2023-03-01T22:34:24.880Z,96397.24
2023-03-01T22:36:53.163Z,96398.48
2023-03-01T22:39:21.515Z,96405.07
2023-03-01T22:41:50.275Z,96399.14
2023-03-01T22:44:20.844Z,96398.02
2023-03-01T22:46:49.570Z,96399.83
2023-03-01T22:49:18.858Z,96394.64
2023-03-01T22:51:47.708Z,96399.39
2023-03-01T22:54:18.012Z,96395.72
2023-03-01T22:56:46.711Z,96394.20
2023-03-01T22:59:19.096Z,96394.55
2023-03-01T23:01:48.158Z,96394.04
2023-03-01T23:04:17.764Z,96392.16
2023-03-01T23:06:55.775Z,96395.71
2023-03-01T23:09:33.990Z,96398.56
2023-03-01T23:12:06.770Z,96401.23
2023-03-01T23:14:35.745Z,96404.71
2023-03-01T23:17:05.404Z,96411.75
2023-03-01T23:19:33.501Z,96421.30
2023-03-01T23:22:01.454Z,96417.59
2023-03-01T23:24:32.078Z,96415.73
2023-03-01T23:27:02.111Z,96415.79
2023-03-01T23:29:31.589Z,96413.95
2023-03-01T23:32:00.191Z,96411.65
2023-03-01T23:34:28.445Z,96409.78
2023-03-01T23:36:58.085Z,96410.73
2023-03-01T23:39:27.521Z,96406.34
2023-03-01T23:41:56.899Z,96402.75
2023-03-01T23:44:25.013Z,96402.21
2023-03-01T23:46:53.120Z,96399.98
2023-03-01T23:49:23.390Z,96399.77
2023-03-01T23:51:51.769Z,96395.72
2023-03-01T23:54:22.370Z,96393.02
2023-03-01T23:56:50.495Z,96392.72
2023-03-01T23:59:22.014Z,96390.04
